This is the latest recevied weather packets stored in our database for station/object N5DGC. If no packets are shown the sender has not sent any weather packets the latest 10 day(s).
| Time | Temp. | Humidity | Pressure | Rain* | Wind** | Luminosity | Snow |
|---|---|---|---|---|---|---|---|
| 1777664417 | 15.56° C | 45% | 1236.8 hPa | 0 mm | - | 1039 W/m² | - |
| 1777664115 | 15.56° C | 44% | 1236.6 hPa | 0 mm | - | 404 W/m² | - |
| 1777663814 | 16.67° C | 43% | 1236.8 hPa | 0 mm | - | 341 W/m² | - |
| 1777663510 | 17.22° C | 42% | 1236.6 hPa | 0 mm | - | 752 W/m² | - |
| 1777663208 | 16.67° C | 44% | 1236.7 hPa | 0 mm | - | 1019 W/m² | - |
| 1777662905 | 16.11° C | 45% | 1236.8 hPa | 0 mm | - | 1085 W/m² | - |
| 1777662602 | 16.11° C | 45% | 1236.9 hPa | 0 mm | - | 562 W/m² | - |
| 1777662297 | 16.67° C | 42% | 1237.2 hPa | 0 mm | - | 529 W/m² | - |
| 1777661993 | 16.11° C | 46% | 1237.2 hPa | 0 mm | - | 1157 W/m² | - |
| 1777661689 | 16.11° C | 45% | 1236.9 hPa | 0 mm | - | 964 W/m² | - |
| 1777661385 | 16.11° C | 45% | 1237.2 hPa | 0 mm | - | 1023 W/m² | - |
| 1777661082 | 16.11° C | 45% | 1236.8 hPa | 0 mm | - | 1069 W/m² | - |
| 1777660776 | 16.11° C | 47% | 1237 hPa | 0 mm | - | 1036 W/m² | - |
| 1777660474 | 15.56° C | 46% | 1237.2 hPa | 0 mm | - | 1046 W/m² | - |
| 1777660170 | 15.56° C | 47% | 1237 hPa | 0 mm | - | 1049 W/m² | - |
| 1777659867 | 15.56° C | 47% | 1237.2 hPa | 0 mm | - | 274 W/m² | - |
| 1777659563 | 15.56° C | 47% | 1237.3 hPa | 0 mm | - | 560 W/m² | - |
| 1777659261 | 16.11° C | 47% | 1237.3 hPa | 0 mm | - | 1034 W/m² | - |
| 1777658958 | 15° C | 48% | 1237.3 hPa | 0 mm | - | 1139 W/m² | - |
| 1777658654 | 15° C | 49% | 1237.4 hPa | 0 mm | - | 1014 W/m² | - |
| 1777658351 | 15° C | 48% | 1237.4 hPa | 0 mm | - | 646 W/m² | - |
| 1777658049 | 15° C | 50% | 1237.5 hPa | 0 mm | - | 628 W/m² | - |
| 1777657745 | 15° C | 48% | 1237.7 hPa | 0 mm | - | 897 W/m² | - |
| 1777657442 | 14.44° C | 49% | 1237.6 hPa | 0 mm | - | 834 W/m² | - |
| 1777657140 | 14.44° C | 49% | 1237.7 hPa | 0 mm | - | 627 W/m² | - |
* Rain latest hour (hover to see other rain measurements)
** Current wind speed in m/s (hover to see current wind gust speed)